createdAt,value
2023-03-28T00:01:33.354Z,43.59
2023-03-28T00:04:03.452Z,43.74
2023-03-28T00:06:32.207Z,43.63
2023-03-28T00:09:00.421Z,43.70
2023-03-28T00:11:31.335Z,43.53
2023-03-28T00:14:03.786Z,43.93
2023-03-28T00:16:39.577Z,43.98
2023-03-28T00:19:13.325Z,44.11
2023-03-28T00:21:47.193Z,44.49
2023-03-28T00:24:16.957Z,44.68
2023-03-28T00:26:45.610Z,44.57
2023-03-28T00:29:21.418Z,44.84
2023-03-28T00:31:50.440Z,45.27
2023-03-28T00:34:19.995Z,45.50
2023-03-28T00:36:48.433Z,45.41
2023-03-28T00:39:16.910Z,45.24
2023-03-28T00:41:45.760Z,45.00
2023-03-28T00:44:43.696Z,45.48
2023-03-28T00:47:41.011Z,45.81
2023-03-28T00:50:23.738Z,47.20
2023-03-28T00:53:18.250Z,46.42
2023-03-28T00:55:57.717Z,46.36
2023-03-28T00:58:29.623Z,46.57
2023-03-28T01:00:58.339Z,47.08
2023-03-28T01:03:33.765Z,47.42
2023-03-28T01:06:04.779Z,48.20
2023-03-28T01:08:44.228Z,48.09
2023-03-28T01:11:12.781Z,48.12
2023-03-28T01:13:46.920Z,48.19
2023-03-28T01:16:16.129Z,47.75
2023-03-28T01:18:47.220Z,47.45
2023-03-28T01:22:06.769Z,47.14
2023-03-28T01:25:02.219Z,47.27
2023-03-28T01:27:45.836Z,47.29
2023-03-28T01:30:53.654Z,47.00
2023-03-28T01:34:31.745Z,47.44
2023-03-28T01:37:10.418Z,48.27
2023-03-28T01:40:01.132Z,48.95
2023-03-28T01:42:49.521Z,49.87
2023-03-28T01:45:30.310Z,50.70
2023-03-28T01:48:06.534Z,51.08
2023-03-28T01:50:58.218Z,51.23
2023-03-28T01:53:32.835Z,51.61
2023-03-28T01:56:04.274Z,51.44
2023-03-28T01:58:42.479Z,51.55
2023-03-28T02:01:37.091Z,51.84
2023-03-28T02:04:20.384Z,52.28
2023-03-28T02:07:00.468Z,52.46
2023-03-28T02:09:36.141Z,52.09
2023-03-28T02:12:12.487Z,51.97
2023-03-28T02:15:12.049Z,52.27
2023-03-28T02:17:42.516Z,51.97
2023-03-28T02:20:30.043Z,52.58
2023-03-28T02:23:24.043Z,52.92
2023-03-28T02:26:12.557Z,53.28
2023-03-28T02:29:02.072Z,53.20
2023-03-28T02:31:36.285Z,53.28
2023-03-28T02:34:04.778Z,53.34
2023-03-28T02:36:41.812Z,53.62
2023-03-28T02:39:13.189Z,54.09
2023-03-28T02:42:17.998Z,54.69
2023-03-28T02:45:14.180Z,58.06
2023-03-28T02:47:49.324Z,57.44
2023-03-28T02:50:30.988Z,57.97
2023-03-28T02:53:05.828Z,60.25
2023-03-28T02:55:39.706Z,61.14
2023-03-28T02:58:30.797Z,62.91
2023-03-28T03:00:59.128Z,62.90
2023-03-28T03:03:28.616Z,63.64
2023-03-28T03:05:58.405Z,64.91
2023-03-28T03:08:28.092Z,65.06
2023-03-28T03:10:57.315Z,64.59
2023-03-28T03:13:26.178Z,64.78
2023-03-28T03:15:56.338Z,65.36
2023-03-28T03:18:26.448Z,64.85
2023-03-28T03:20:55.727Z,64.26
2023-03-28T03:23:27.844Z,63.84
2023-03-28T03:25:58.400Z,63.50
2023-03-28T03:28:34.663Z,65.63
2023-03-28T03:31:06.612Z,66.40
2023-03-28T03:33:38.287Z,67.03
2023-03-28T03:36:12.952Z,67.22
2023-03-28T03:38:45.082Z,67.48
2023-03-28T03:41:17.457Z,67.54
2023-03-28T03:43:47.498Z,67.29
2023-03-28T03:46:15.934Z,67.23
2023-03-28T03:48:49.673Z,67.41
2023-03-28T03:51:19.786Z,67.84
2023-03-28T03:53:50.908Z,67.38
2023-03-28T03:56:21.594Z,67.54
2023-03-28T03:58:58.149Z,67.51
2023-03-28T04:01:35.248Z,66.45
2023-03-28T04:04:24.137Z,67.55
2023-03-28T04:07:16.093Z,68.10
2023-03-28T04:09:49.451Z,66.29
2023-03-28T04:12:18.851Z,68.11
2023-03-28T04:14:48.603Z,68.08
2023-03-28T04:17:41.507Z,69.35
2023-03-28T04:20:15.915Z,69.45
2023-03-28T04:23:11.079Z,68.63
2023-03-28T04:25:43.275Z,69.38
2023-03-28T04:28:28.130Z,68.50
2023-03-28T04:31:06.066Z,67.56
2023-03-28T04:33:57.802Z,68.00
2023-03-28T04:36:27.283Z,67.24
2023-03-28T04:39:03.040Z,67.63
2023-03-28T04:42:04.647Z,69.10
2023-03-28T04:44:56.229Z,69.81
2023-03-28T04:47:25.694Z,68.69
2023-03-28T04:49:54.449Z,69.33
2023-03-28T04:52:25.103Z,70.63
2023-03-28T04:54:53.648Z,70.31
2023-03-28T04:57:26.528Z,71.76
2023-03-28T05:00:00.648Z,72.18
2023-03-28T05:03:00.217Z,74.24
2023-03-28T05:05:31.894Z,74.78
2023-03-28T05:08:01.005Z,75.38
2023-03-28T05:10:29.655Z,75.99
2023-03-28T05:13:04.040Z,74.93
2023-03-28T05:15:38.719Z,74.76
2023-03-28T05:18:23.513Z,73.73
2023-03-28T05:20:54.564Z,74.47
2023-03-28T05:23:24.237Z,75.24
2023-03-28T05:25:59.078Z,74.76
2023-03-28T05:28:30.576Z,75.11
2023-03-28T05:30:59.588Z,74.83
2023-03-28T05:33:32.518Z,75.58
2023-03-28T05:36:02.183Z,75.19
2023-03-28T05:38:37.569Z,74.78
2023-03-28T05:41:12.909Z,77.14
2023-03-28T05:43:41.216Z,77.11
2023-03-28T05:46:09.941Z,77.23
2023-03-28T05:48:43.172Z,76.87
2023-03-28T05:51:21.646Z,76.57
2023-03-28T05:53:50.438Z,76.24
2023-03-28T05:56:19.743Z,75.84
2023-03-28T05:58:48.939Z,75.50
2023-03-28T06:01:23.639Z,75.38
2023-03-28T06:03:56.310Z,76.25
2023-03-28T06:06:25.928Z,75.18
2023-03-28T06:08:54.846Z,74.88
2023-03-28T06:11:23.237Z,75.03
2023-03-28T06:14:24.225Z,76.95
2023-03-28T06:16:53.166Z,74.96
2023-03-28T06:19:22.474Z,75.40
2023-03-28T06:21:53.147Z,74.42
2023-03-28T06:24:22.274Z,75.24
2023-03-28T06:26:51.733Z,74.89
2023-03-28T06:29:25.715Z,75.40
2023-03-28T06:32:01.427Z,75.40
2023-03-28T06:34:29.965Z,74.50
2023-03-28T06:37:02.034Z,74.80
2023-03-28T06:39:43.320Z,73.89
2023-03-28T06:42:12.005Z,73.28
2023-03-28T06:44:48.974Z,74.83
2023-03-28T06:47:30.756Z,74.46
2023-03-28T06:49:59.249Z,73.90
2023-03-28T06:52:56.575Z,73.94
2023-03-28T06:55:25.696Z,73.34
2023-03-28T06:57:57.338Z,73.78
2023-03-28T07:00:31.010Z,74.85
2023-03-28T07:03:18.546Z,75.62
2023-03-28T07:05:48.987Z,74.18
2023-03-28T07:08:18.339Z,73.54
2023-03-28T07:10:46.759Z,73.65
2023-03-28T07:13:15.661Z,73.43
2023-03-28T07:16:05.406Z,73.33
2023-03-28T07:18:34.211Z,72.97
2023-03-28T07:21:14.170Z,73.20
2023-03-28T07:23:44.864Z,74.17
2023-03-28T07:26:15.661Z,73.70
2023-03-28T07:28:45.875Z,73.53
2023-03-28T07:31:14.333Z,73.05
2023-03-28T07:33:44.720Z,73.69
2023-03-28T07:36:15.870Z,74.21
2023-03-28T07:38:49.598Z,73.99
2023-03-28T07:41:19.086Z,74.32
2023-03-28T07:43:47.316Z,74.86
2023-03-28T07:46:16.387Z,74.56
2023-03-28T07:48:46.734Z,74.02
2023-03-28T07:51:16.097Z,74.49
2023-03-28T07:53:46.325Z,75.32
2023-03-28T07:57:30.796Z,88.29
2023-03-28T08:00:04.945Z,76.00
2023-03-28T08:02:44.611Z,73.54
2023-03-28T08:05:14.304Z,72.87
2023-03-28T08:07:46.199Z,71.45
2023-03-28T08:10:14.837Z,73.12
2023-03-28T08:12:48.013Z,73.03
2023-03-28T08:15:19.822Z,72.67
2023-03-28T08:17:49.233Z,71.65
2023-03-28T08:20:21.528Z,71.93
2023-03-28T08:23:17.785Z,71.92
2023-03-28T08:26:04.802Z,71.78
2023-03-28T08:28:34.133Z,71.55
2023-03-28T08:31:09.416Z,70.44
2023-03-28T08:33:38.166Z,70.27
2023-03-28T08:36:07.664Z,71.62
2023-03-28T08:38:36.785Z,74.26
2023-03-28T08:41:25.582Z,75.45
2023-03-28T08:44:20.876Z,76.79
2023-03-28T08:46:52.634Z,79.32
2023-03-28T08:49:21.193Z,79.90
2023-03-28T08:51:59.346Z,76.95
2023-03-28T08:54:37.328Z,72.38
2023-03-28T08:57:06.094Z,72.55
2023-03-28T09:00:09.092Z,73.53
2023-03-28T09:02:37.895Z,74.60
2023-03-28T09:05:36.141Z,75.60
2023-03-28T09:08:23.492Z,75.15
2023-03-28T09:11:14.589Z,77.26
2023-03-28T09:14:24.683Z,78.52
2023-03-28T09:17:03.172Z,77.51
2023-03-28T09:19:47.301Z,75.96
2023-03-28T09:22:41.772Z,75.95
2023-03-28T09:25:22.622Z,75.21
2023-03-28T09:28:24.399Z,75.67
2023-03-28T09:30:53.055Z,74.32
2023-03-28T09:33:27.662Z,72.45
2023-03-28T09:35:57.446Z,74.92
2023-03-28T09:38:38.346Z,72.87
2023-03-28T09:41:14.536Z,71.99
2023-03-28T09:44:09.234Z,73.90
2023-03-28T09:47:12.452Z,74.15
2023-03-28T09:49:47.199Z,74.05
2023-03-28T09:52:17.942Z,72.79
2023-03-28T09:54:47.498Z,72.34
2023-03-28T09:57:15.923Z,72.05
2023-03-28T10:00:07.745Z,75.03
2023-03-28T10:02:46.768Z,74.04
2023-03-28T10:05:40.247Z,73.85
2023-03-28T10:08:33.046Z,74.01
2023-03-28T10:11:14.411Z,71.25
2023-03-28T10:13:47.510Z,70.06
2023-03-28T10:16:21.206Z,72.44
2023-03-28T10:19:11.131Z,71.56
2023-03-28T10:21:51.391Z,72.56
2023-03-28T10:24:22.978Z,72.64
2023-03-28T10:27:06.204Z,73.65
2023-03-28T10:29:37.303Z,74.12
2023-03-28T10:32:06.330Z,74.61
2023-03-28T10:34:46.030Z,76.43
2023-03-28T10:37:28.720Z,77.24
2023-03-28T10:40:20.600Z,76.21
2023-03-28T10:42:52.303Z,74.39
2023-03-28T10:45:46.785Z,76.04
2023-03-28T10:48:21.907Z,76.10
2023-03-28T10:50:51.720Z,76.46
2023-03-28T10:53:38.764Z,75.37
2023-03-28T10:56:27.994Z,76.79
2023-03-28T10:59:14.826Z,78.26
2023-03-28T11:02:02.507Z,78.69
2023-03-28T11:05:14.459Z,75.95
2023-03-28T11:08:22.024Z,74.38
2023-03-28T11:11:26.208Z,76.06
2023-03-28T11:14:21.395Z,76.70
2023-03-28T11:16:59.212Z,76.56
2023-03-28T11:19:48.796Z,76.36
2023-03-28T11:22:23.044Z,75.65
2023-03-28T11:24:56.594Z,75.69
2023-03-28T11:27:47.311Z,75.41
2023-03-28T11:30:33.808Z,74.79
2023-03-28T11:33:59.119Z,73.70
2023-03-28T11:36:36.573Z,75.92
2023-03-28T11:39:18.571Z,76.10
2023-03-28T11:41:47.228Z,75.48
2023-03-28T11:44:22.970Z,74.98
2023-03-28T11:47:24.023Z,74.90
2023-03-28T11:50:18.926Z,74.93
2023-03-28T11:53:05.762Z,74.66
2023-03-28T11:55:43.213Z,73.11
2023-03-28T11:58:23.682Z,73.64
2023-03-28T12:01:05.030Z,73.51
2023-03-28T12:04:02.739Z,75.20
2023-03-28T12:07:02.982Z,74.16
2023-03-28T12:09:35.831Z,73.49
2023-03-28T12:12:14.317Z,74.06
2023-03-28T12:14:49.481Z,74.61
2023-03-28T12:17:52.746Z,74.32
2023-03-28T12:20:31.934Z,75.19
2023-03-28T12:23:04.766Z,74.99
2023-03-28T12:26:22.206Z,76.39
2023-03-28T12:28:55.662Z,75.65
2023-03-28T12:31:36.038Z,75.48
2023-03-28T12:34:23.679Z,76.20
2023-03-28T12:37:25.679Z,75.36
2023-03-28T12:40:20.215Z,75.99
2023-03-28T12:42:49.366Z,75.64
2023-03-28T12:45:26.605Z,74.74
2023-03-28T12:48:24.860Z,73.63
2023-03-28T12:50:56.723Z,67.24
2023-03-28T12:53:27.837Z,68.85
2023-03-28T12:55:56.230Z,68.68
2023-03-28T12:58:26.807Z,65.90
2023-03-28T13:01:13.894Z,65.19
2023-03-28T13:04:28.212Z,66.56
2023-03-28T13:07:12.668Z,66.97
2023-03-28T13:09:56.315Z,66.79
2023-03-28T13:12:56.413Z,66.09
2023-03-28T13:15:27.785Z,65.93
2023-03-28T13:18:18.512Z,66.67
2023-03-28T13:20:53.759Z,66.22
2023-03-28T13:23:33.896Z,64.78
2023-03-28T13:26:04.600Z,66.00
2023-03-28T13:28:39.773Z,66.26
2023-03-28T13:31:11.482Z,65.17
2023-03-28T13:34:00.131Z,66.38
2023-03-28T13:36:29.882Z,66.79
2023-03-28T13:39:09.587Z,67.26
2023-03-28T13:41:41.503Z,67.13
2023-03-28T13:44:14.572Z,67.88
2023-03-28T13:46:44.895Z,68.98
2023-03-28T13:49:19.845Z,69.86
2023-03-28T13:51:48.319Z,70.46
2023-03-28T13:54:16.847Z,69.88
2023-03-28T13:56:47.170Z,70.32
2023-03-28T13:59:16.809Z,70.04
2023-03-28T14:01:48.479Z,68.41
2023-03-28T14:04:22.098Z,67.97
2023-03-28T14:06:51.509Z,67.16
2023-03-28T14:09:31.332Z,66.05
2023-03-28T14:12:08.793Z,66.47
2023-03-28T14:14:47.755Z,66.24
2023-03-28T14:17:18.293Z,67.29
2023-03-28T14:20:06.395Z,67.52
2023-03-28T14:23:00.410Z,67.11
2023-03-28T14:25:30.798Z,51.85
2023-03-28T14:28:07.509Z,44.17
2023-03-28T14:30:40.907Z,45.17
2023-03-28T14:33:14.653Z,43.24
2023-03-28T14:35:43.427Z,42.35
2023-03-28T14:38:14.571Z,42.62
2023-03-28T14:40:44.186Z,47.50
2023-03-28T14:43:13.933Z,76.53
2023-03-28T14:45:52.214Z,64.85
2023-03-28T14:48:28.547Z,59.98
2023-03-28T14:50:59.064Z,59.85
2023-03-28T14:53:28.538Z,58.60
2023-03-28T14:56:02.236Z,65.93
2023-03-28T14:58:38.157Z,65.94
2023-03-28T15:01:07.500Z,65.56
2023-03-28T15:03:41.707Z,60.27
2023-03-28T15:06:17.793Z,58.82
2023-03-28T15:08:46.894Z,63.95
2023-03-28T15:11:30.789Z,59.19
2023-03-28T15:14:17.033Z,67.15
2023-03-28T15:16:46.085Z,60.78
2023-03-28T15:19:23.372Z,61.03
2023-03-28T15:22:04.440Z,61.81
2023-03-28T15:24:38.143Z,60.87
2023-03-28T15:27:07.567Z,69.13
2023-03-28T15:29:37.297Z,64.59
2023-03-28T15:32:07.824Z,63.00
2023-03-28T15:34:45.066Z,63.55
2023-03-28T15:37:20.615Z,71.87
2023-03-28T15:39:51.585Z,74.36
2023-03-28T15:42:20.502Z,59.08
2023-03-28T15:44:57.713Z,63.37
2023-03-28T15:47:29.657Z,66.20
2023-03-28T15:50:03.482Z,64.31
2023-03-28T15:52:34.516Z,63.29
2023-03-28T15:55:03.254Z,65.09
2023-03-28T15:57:32.541Z,87.18
2023-03-28T16:00:01.292Z,78.41
2023-03-28T16:02:32.787Z,75.68
2023-03-28T16:05:04.186Z,82.89
2023-03-28T16:07:51.185Z,87.48
2023-03-28T16:10:21.379Z,82.89
2023-03-28T16:13:15.069Z,85.28
2023-03-28T16:16:05.429Z,84.11
2023-03-28T16:18:43.890Z,84.62
2023-03-28T16:21:15.202Z,76.13
2023-03-28T16:23:43.942Z,69.80
2023-03-28T16:26:12.357Z,71.73
2023-03-28T16:28:40.994Z,71.07
2023-03-28T16:31:14.726Z,68.88
2023-03-28T16:33:43.592Z,68.96
2023-03-28T16:36:13.239Z,64.48
2023-03-28T16:38:43.213Z,70.94
2023-03-28T16:41:11.489Z,67.49
2023-03-28T16:43:40.691Z,76.07
2023-03-28T16:46:11.107Z,94.07
2023-03-28T16:48:40.909Z,100.00
2023-03-28T16:51:09.653Z,90.78
2023-03-28T16:53:38.993Z,91.44
2023-03-28T16:56:09.296Z,81.32
2023-03-28T16:58:39.423Z,81.35
2023-03-28T17:01:15.640Z,78.62
2023-03-28T17:03:46.340Z,98.32
2023-03-28T17:06:15.018Z,88.19
2023-03-28T17:08:44.446Z,79.63
2023-03-28T17:11:13.404Z,80.58
2023-03-28T17:13:42.984Z,79.03
2023-03-28T17:16:11.495Z,82.90
2023-03-28T17:18:40.197Z,93.41
2023-03-28T17:21:13.959Z,98.56
2023-03-28T17:23:43.210Z,99.77
2023-03-28T17:26:13.051Z,78.50
2023-03-28T17:28:43.647Z,91.43
2023-03-28T17:31:15.078Z,82.77
2023-03-28T17:33:44.534Z,77.86
2023-03-28T17:36:21.842Z,71.65
2023-03-28T17:38:54.359Z,68.75
2023-03-28T17:41:23.322Z,78.53
2023-03-28T17:43:52.514Z,29.03
2023-03-28T17:46:22.139Z,-1.00
2023-03-28T17:48:50.935Z,-1.00
2023-03-28T17:51:19.583Z,-1.00
2023-03-28T17:53:48.826Z,-1.00
2023-03-28T17:56:21.727Z,-1.00
2023-03-28T17:58:50.383Z,-1.00
2023-03-28T18:01:19.811Z,-1.00
2023-03-28T18:03:49.394Z,-1.00
2023-03-28T18:06:34.013Z,-1.00
2023-03-28T18:09:02.495Z,-1.00
2023-03-28T18:11:30.962Z,-1.00
2023-03-28T18:13:59.735Z,-1.00
2023-03-28T18:16:29.315Z,-1.00
2023-03-28T18:18:58.116Z,-1.00
2023-03-28T18:21:27.316Z,-1.00
2023-03-28T18:23:55.545Z,-1.00
2023-03-28T18:26:24.575Z,-1.00
2023-03-28T18:28:53.856Z,-1.00
2023-03-28T18:31:28.190Z,-1.00
2023-03-28T18:33:57.924Z,-1.00
2023-03-28T18:36:26.618Z,-1.00
2023-03-28T18:38:56.337Z,-1.00
2023-03-28T18:41:30.289Z,-1.00
2023-03-28T18:44:00.428Z,-1.00
2023-03-28T18:46:33.916Z,-1.00
2023-03-28T18:49:02.884Z,-1.00
2023-03-28T18:51:31.779Z,-1.00
2023-03-28T18:54:01.081Z,-1.00
2023-03-28T18:56:30.386Z,-1.00
2023-03-28T18:58:58.776Z,-1.00
2023-03-28T19:01:28.761Z,-1.00
2023-03-28T19:03:58.037Z,-1.00
2023-03-28T19:06:26.568Z,-1.00
2023-03-28T19:08:54.984Z,-1.00
2023-03-28T19:11:23.671Z,-1.00
2023-03-28T19:13:57.981Z,-1.00
2023-03-28T19:16:26.895Z,-1.00
2023-03-28T19:18:55.409Z,-1.00
2023-03-28T19:21:24.174Z,-1.00
2023-03-28T19:23:54.167Z,-1.00
2023-03-28T19:26:23.164Z,-1.00
2023-03-28T19:28:51.804Z,-1.00
2023-03-28T19:31:22.152Z,-1.00
2023-03-28T19:33:50.690Z,-1.00
2023-03-28T19:36:19.237Z,-1.00
2023-03-28T19:38:50.422Z,-1.00
2023-03-28T19:41:20.395Z,-1.00
2023-03-28T19:43:55.487Z,-1.00
2023-03-28T19:46:33.246Z,-1.00
2023-03-28T19:49:05.819Z,-1.00
2023-03-28T19:51:34.861Z,-1.00
2023-03-28T19:54:03.590Z,-1.00
2023-03-28T19:56:32.238Z,-1.00
2023-03-28T19:59:00.790Z,-1.00
2023-03-28T20:01:31.281Z,-1.00
2023-03-28T20:04:00.842Z,-1.00
2023-03-28T20:06:29.446Z,-1.00
2023-03-28T20:08:57.871Z,-1.00
2023-03-28T20:13:53.151Z,63.13
2023-03-28T20:16:23.385Z,49.64
2023-03-28T20:18:54.214Z,49.23
2023-03-28T20:21:21.371Z,50.17
2023-03-28T20:23:49.798Z,49.73
2023-03-28T20:26:18.329Z,49.82
2023-03-28T20:28:49.017Z,47.74
2023-03-28T20:31:17.831Z,49.76
2023-03-28T20:33:44.755Z,49.50
2023-03-28T20:36:11.732Z,50.15
2023-03-28T20:38:39.200Z,49.45
2023-03-28T20:41:13.734Z,49.17
2023-03-28T20:43:45.994Z,48.62
2023-03-28T20:46:17.716Z,49.06
2023-03-28T20:48:45.942Z,49.53
2023-03-28T20:51:14.606Z,49.42
2023-03-28T20:53:43.299Z,49.43
2023-03-28T20:56:11.112Z,49.15
2023-03-28T20:58:39.704Z,48.28
2023-03-28T21:01:08.956Z,48.47
2023-03-28T21:03:53.153Z,80.71
2023-03-28T21:06:22.761Z,55.92
2023-03-28T21:08:50.402Z,55.82
2023-03-28T21:11:24.209Z,54.09
2023-03-28T21:13:51.798Z,53.49
2023-03-28T21:16:18.930Z,52.67
2023-03-28T21:18:47.507Z,51.42
2023-03-28T21:21:16.847Z,51.35
2023-03-28T21:23:44.294Z,51.42
2023-03-28T21:26:13.401Z,51.73
2023-03-28T21:28:45.136Z,52.17
2023-03-28T21:31:17.700Z,50.27
2023-03-28T21:33:46.167Z,49.80
2023-03-28T21:36:15.379Z,49.30
2023-03-28T21:38:42.876Z,49.44
2023-03-28T21:41:14.875Z,48.38
2023-03-28T21:43:42.072Z,48.85
2023-03-28T21:46:09.064Z,49.57
2023-03-28T21:48:37.617Z,49.54
2023-03-28T21:51:05.292Z,48.73
2023-03-28T21:53:36.721Z,48.04
2023-03-28T21:56:06.079Z,48.64
2023-03-28T21:58:32.969Z,48.17
2023-03-28T22:01:02.092Z,47.76
2023-03-28T22:03:29.969Z,47.09
2023-03-28T22:05:56.843Z,47.24
2023-03-28T22:08:24.380Z,47.07
2023-03-28T22:10:52.905Z,45.90
2023-03-28T22:13:20.664Z,46.49
2023-03-28T22:15:49.038Z,46.76
2023-03-28T22:18:16.031Z,46.36
2023-03-28T22:20:43.182Z,46.28
2023-03-28T22:23:10.256Z,45.90
2023-03-28T22:25:37.807Z,46.47
2023-03-28T22:28:07.049Z,46.75
2023-03-28T22:30:34.403Z,46.38
2023-03-28T22:33:03.271Z,46.21
2023-03-28T22:35:30.662Z,46.43
2023-03-28T22:37:57.676Z,46.51
2023-03-28T22:40:24.879Z,45.64
2023-03-28T22:42:53.541Z,45.77
2023-03-28T22:45:26.259Z,46.36
2023-03-28T22:47:53.647Z,46.44
2023-03-28T22:50:21.504Z,46.16
2023-03-28T22:52:49.756Z,45.35
2023-03-28T22:55:16.806Z,45.37
2023-03-28T22:57:47.289Z,44.78
2023-03-28T23:00:16.000Z,43.75
2023-03-28T23:02:43.227Z,43.84
2023-03-28T23:05:10.622Z,44.21
2023-03-28T23:07:37.948Z,43.36
2023-03-28T23:10:07.784Z,42.89
2023-03-28T23:12:41.268Z,42.64
2023-03-28T23:15:08.869Z,41.98
2023-03-28T23:17:35.685Z,42.89
2023-03-28T23:20:09.507Z,42.67
2023-03-28T23:22:36.676Z,42.45
2023-03-28T23:25:04.469Z,43.04
2023-03-28T23:27:31.521Z,43.03
2023-03-28T23:29:58.336Z,42.09
2023-03-28T23:32:25.467Z,42.95
2023-03-28T23:34:53.102Z,42.02
2023-03-28T23:37:25.528Z,41.61
2023-03-28T23:39:55.872Z,41.59
2023-03-28T23:42:23.288Z,41.93
2023-03-28T23:44:50.284Z,42.29
2023-03-28T23:47:17.578Z,41.76
2023-03-28T23:49:44.741Z,41.70
2023-03-28T23:52:12.514Z,41.75
2023-03-28T23:54:39.534Z,42.48
2023-03-28T23:57:07.209Z,41.56
2023-03-28T23:59:34.788Z,41.91
